LKJA weather

Public forecast

Using degrees Celsius for public forecast. Weather courtesy of forecast.io.

Closest aviation weather report (METAR) to Jaroměř Airport

Closest report is Pardubice Airport, 20.8 nm (38.5 km) SSW. Retrieved 2020/08/09 08:00 UTC (14 minutes ago):

LKPD 090800Z 31003KT 280V350 CAVOK 25/18 Q1020 NOSIG

Closest aviation forecast (TAF) to Jaroměř Airport

Closest forecast is Pardubice Airport, 20.8 nm (38.5 km) SSW. Retrieved 2020/08/09 06:06 UTC (2 hours ago):

TAF LKPD 090500Z 0906/1006 VRB02KT CAVOK TEMPO 0912/0917 06007KT SCT040TCU